createdAt,value
2023-03-25T00:01:32.924Z,0.10
2023-03-25T00:04:01.671Z,0.20
2023-03-25T00:06:28.611Z,0.10
2023-03-25T00:08:56.258Z,0.15
2023-03-25T00:11:23.821Z,0.10
2023-03-25T00:13:50.820Z,0.10
2023-03-25T00:16:19.228Z,0.15
2023-03-25T00:18:48.009Z,0.20
2023-03-25T00:21:15.052Z,0.10
2023-03-25T00:23:42.493Z,0.20
2023-03-25T00:26:09.666Z,0.17
2023-03-25T00:28:38.231Z,0.20
2023-03-25T00:31:13.504Z,0.10
2023-03-25T00:33:43.759Z,0.10
2023-03-25T00:36:13.566Z,0.20
2023-03-25T00:38:43.220Z,0.20
2023-03-25T00:41:11.535Z,0.20
2023-03-25T00:43:39.208Z,0.20
2023-03-25T00:46:06.431Z,0.10
2023-03-25T00:48:33.329Z,0.20
2023-03-25T00:51:07.166Z,0.20
2023-03-25T00:53:34.672Z,0.10
2023-03-25T00:56:02.674Z,0.15
2023-03-25T00:58:29.714Z,0.10
2023-03-25T01:00:57.740Z,0.10
2023-03-25T01:03:25.863Z,0.10
2023-03-25T01:05:54.822Z,0.17
2023-03-25T01:08:25.785Z,0.20
2023-03-25T01:10:56.581Z,0.10
2023-03-25T01:13:24.534Z,0.15
2023-03-25T01:15:51.612Z,0.05
2023-03-25T01:18:18.886Z,0.10
2023-03-25T01:20:45.794Z,0.10
2023-03-25T01:23:12.750Z,0.10
2023-03-25T01:25:39.940Z,0.10
2023-03-25T01:28:07.748Z,0.00
2023-03-25T01:30:34.610Z,0.10
2023-03-25T01:33:01.574Z,0.10
2023-03-25T01:35:28.540Z,0.00
2023-03-25T01:37:55.452Z,0.10
2023-03-25T01:40:24.343Z,0.10
2023-03-25T01:42:51.658Z,0.10
2023-03-25T01:45:19.371Z,0.00
2023-03-25T01:47:48.412Z,0.10
2023-03-25T01:50:17.511Z,0.10
2023-03-25T01:52:51.079Z,0.10
2023-03-25T01:55:20.479Z,0.00
2023-03-25T01:57:48.412Z,0.10
2023-03-25T02:00:16.364Z,0.00
2023-03-25T02:02:45.779Z,0.10
2023-03-25T02:05:21.669Z,0.20
2023-03-25T02:07:49.912Z,0.10
2023-03-25T02:10:18.118Z,0.05
2023-03-25T02:12:45.997Z,0.10
2023-03-25T02:15:16.364Z,0.10
2023-03-25T02:18:13.452Z,0.10
2023-03-25T02:21:18.898Z,0.10
2023-03-25T02:24:00.345Z,0.00
2023-03-25T02:26:59.928Z,0.10
2023-03-25T02:29:54.117Z,0.03
2023-03-25T02:32:32.669Z,0.10
2023-03-25T02:35:27.196Z,0.10
2023-03-25T02:38:14.692Z,0.10
2023-03-25T02:41:07.898Z,0.10
2023-03-25T02:44:12.157Z,0.00
2023-03-25T02:46:44.746Z,0.10
2023-03-25T02:49:21.681Z,0.00
2023-03-25T02:52:08.388Z,0.00
2023-03-25T02:54:39.346Z,0.03
2023-03-25T02:57:08.325Z,0.03
2023-03-25T02:59:38.394Z,0.00
2023-03-25T03:02:11.583Z,0.00
2023-03-25T03:04:50.528Z,0.00
2023-03-25T03:07:31.751Z,0.00
2023-03-25T03:10:19.349Z,0.00
2023-03-25T03:12:58.845Z,0.10
2023-03-25T03:16:06.850Z,0.10
2023-03-25T03:18:50.410Z,0.00
2023-03-25T03:21:52.287Z,0.10
2023-03-25T03:24:28.483Z,0.10
2023-03-25T03:27:34.228Z,0.10
2023-03-25T03:30:20.773Z,0.00
2023-03-25T03:33:04.118Z,0.00
2023-03-25T03:35:38.388Z,0.00
2023-03-25T03:38:12.295Z,0.00
2023-03-25T03:40:43.623Z,0.10
2023-03-25T03:43:40.618Z,0.00
2023-03-25T03:46:26.392Z,0.00
2023-03-25T03:48:57.545Z,0.00
2023-03-25T03:51:29.392Z,0.00
2023-03-25T03:54:06.181Z,0.10
2023-03-25T03:56:46.526Z,0.10
2023-03-25T03:59:21.103Z,0.10
2023-03-25T04:01:59.670Z,0.00
2023-03-25T04:04:27.147Z,0.00
2023-03-25T04:07:39.170Z,0.10
2023-03-25T04:10:19.087Z,0.00
2023-03-25T04:12:52.704Z,0.10
2023-03-25T04:15:19.862Z,0.00
2023-03-25T04:17:48.239Z,0.00
2023-03-25T04:20:23.776Z,0.10
2023-03-25T04:22:52.446Z,0.10
2023-03-25T04:25:21.696Z,0.10
2023-03-25T04:27:49.185Z,0.10
2023-03-25T04:30:18.103Z,0.10
2023-03-25T04:32:49.239Z,0.15
2023-03-25T04:35:19.548Z,0.10
2023-03-25T04:37:49.062Z,0.10
2023-03-25T04:40:18.932Z,0.17
2023-03-25T04:42:46.825Z,0.20
2023-03-25T04:45:17.024Z,0.13
2023-03-25T04:47:47.491Z,0.10
2023-03-25T04:50:29.532Z,0.10
2023-03-25T04:53:02.613Z,0.10
2023-03-25T04:55:30.018Z,0.00
2023-03-25T04:57:57.131Z,0.10
2023-03-25T05:00:25.416Z,0.10
2023-03-25T05:02:54.967Z,0.10
2023-03-25T05:05:24.341Z,0.05
2023-03-25T05:07:54.011Z,0.10
2023-03-25T05:10:23.579Z,0.20
2023-03-25T05:12:51.302Z,0.10
2023-03-25T05:15:18.285Z,0.20
2023-03-25T05:17:45.849Z,0.52
2023-03-25T05:20:14.584Z,0.10
2023-03-25T05:22:42.114Z,0.10
2023-03-25T05:25:10.828Z,0.10
2023-03-25T05:27:39.031Z,0.10
2023-03-25T05:30:07.145Z,0.10
2023-03-25T05:32:34.171Z,0.43
2023-03-25T05:35:02.319Z,0.10
2023-03-25T05:37:29.277Z,0.30
2023-03-25T05:39:56.516Z,0.20
2023-03-25T05:42:23.890Z,0.20
2023-03-25T05:44:51.575Z,0.20
2023-03-25T05:47:26.306Z,0.20
2023-03-25T05:49:54.393Z,0.17
2023-03-25T05:52:24.708Z,0.20
2023-03-25T05:54:52.083Z,0.30
2023-03-25T05:57:19.118Z,0.40
2023-03-25T05:59:46.067Z,0.55
2023-03-25T06:02:15.674Z,0.40
2023-03-25T06:04:43.715Z,0.30
2023-03-25T06:07:20.071Z,0.30
2023-03-25T06:09:48.619Z,0.30
2023-03-25T06:12:23.155Z,0.40
2023-03-25T06:14:54.239Z,0.22
2023-03-25T06:17:24.765Z,0.60
2023-03-25T06:19:52.350Z,0.22
2023-03-25T06:22:22.499Z,0.40
2023-03-25T06:24:49.357Z,0.70
2023-03-25T06:27:18.514Z,0.40
2023-03-25T06:29:46.329Z,0.35
2023-03-25T06:32:14.747Z,0.40
2023-03-25T06:34:45.151Z,0.40
2023-03-25T06:37:12.145Z,0.30
2023-03-25T06:39:39.011Z,0.40
2023-03-25T06:42:07.388Z,0.38
2023-03-25T06:44:34.352Z,0.30
2023-03-25T06:47:02.619Z,0.10
2023-03-25T06:49:29.773Z,0.20
2023-03-25T06:51:56.656Z,0.60
2023-03-25T06:54:23.576Z,0.25
2023-03-25T06:56:50.587Z,0.22
2023-03-25T06:59:17.578Z,0.40
2023-03-25T07:01:44.611Z,0.20
2023-03-25T07:04:11.509Z,0.30
2023-03-25T07:06:38.422Z,0.30
2023-03-25T07:09:05.460Z,0.20
2023-03-25T07:11:33.402Z,0.20
2023-03-25T07:14:00.393Z,0.20
2023-03-25T07:16:27.638Z,0.22
2023-03-25T07:18:59.065Z,0.30
2023-03-25T07:21:26.534Z,0.20
2023-03-25T07:23:53.715Z,0.28
2023-03-25T07:26:20.748Z,0.30
2023-03-25T07:28:51.000Z,0.30
2023-03-25T07:31:17.919Z,0.30
2023-03-25T07:33:44.872Z,0.20
2023-03-25T07:36:13.013Z,0.20
2023-03-25T07:38:40.772Z,0.32
2023-03-25T07:41:12.239Z,0.20
2023-03-25T07:43:39.868Z,0.20
2023-03-25T07:46:07.210Z,0.10
2023-03-25T07:48:34.087Z,0.30
2023-03-25T07:51:01.048Z,0.20
2023-03-25T07:53:27.935Z,0.30
2023-03-25T07:55:54.891Z,0.30
2023-03-25T07:58:21.892Z,0.20
2023-03-25T08:00:48.780Z,0.25
2023-03-25T08:03:16.203Z,0.20
2023-03-25T08:05:47.905Z,0.40
2023-03-25T08:08:15.476Z,0.20
2023-03-25T08:10:44.014Z,0.50
2023-03-25T08:13:12.216Z,0.38
2023-03-25T08:15:40.498Z,0.30
2023-03-25T08:18:07.825Z,0.45
2023-03-25T08:20:35.968Z,0.65
2023-03-25T08:23:03.161Z,0.30
2023-03-25T08:25:31.251Z,0.47
2023-03-25T08:27:58.167Z,0.52
2023-03-25T08:30:25.103Z,0.60
2023-03-25T08:32:54.789Z,0.50
2023-03-25T08:35:25.047Z,0.50
2023-03-25T08:37:52.100Z,0.55
2023-03-25T08:40:19.988Z,1.00
2023-03-25T08:42:47.081Z,0.90
2023-03-25T08:45:15.614Z,0.75
2023-03-25T08:47:44.042Z,2.08
2023-03-25T08:50:11.494Z,0.85
2023-03-25T08:52:38.600Z,0.85
2023-03-25T08:55:11.044Z,0.70
2023-03-25T08:57:39.100Z,1.00
2023-03-25T09:00:13.242Z,1.17
2023-03-25T09:02:42.233Z,1.20
2023-03-25T09:05:10.986Z,0.88
2023-03-25T09:07:38.362Z,1.00
2023-03-25T09:10:06.312Z,0.82
2023-03-25T09:12:33.371Z,0.93
2023-03-25T09:15:00.242Z,0.93
2023-03-25T09:17:27.531Z,1.15
2023-03-25T09:19:55.494Z,0.85
2023-03-25T09:22:23.886Z,1.20
2023-03-25T09:24:50.851Z,1.00
2023-03-25T09:27:17.911Z,1.30
2023-03-25T09:29:44.770Z,1.73
2023-03-25T09:32:11.850Z,1.25
2023-03-25T09:34:39.596Z,1.80
2023-03-25T09:37:06.515Z,1.52
2023-03-25T09:39:33.432Z,1.02
2023-03-25T09:42:32.966Z,1.25
2023-03-25T09:45:17.835Z,0.75
2023-03-25T09:48:15.660Z,1.10
2023-03-25T09:50:44.801Z,0.98
2023-03-25T09:53:30.575Z,0.77
2023-03-25T09:55:58.457Z,1.08
2023-03-25T09:58:30.687Z,0.80
2023-03-25T10:01:12.511Z,1.38
2023-03-25T10:04:02.524Z,0.80
2023-03-25T10:06:32.606Z,0.90
2023-03-25T10:09:14.144Z,1.23
2023-03-25T10:12:15.845Z,0.98
2023-03-25T10:15:10.713Z,1.25
2023-03-25T10:18:04.282Z,1.33
2023-03-25T10:21:00.257Z,1.10
2023-03-25T10:23:44.533Z,1.63
2023-03-25T10:26:19.811Z,1.73
2023-03-25T10:29:01.364Z,1.60
2023-03-25T10:31:32.150Z,1.85
2023-03-25T10:34:05.436Z,1.80
2023-03-25T10:36:36.493Z,2.40
2023-03-25T10:39:11.406Z,2.17
2023-03-25T10:41:41.029Z,1.60
2023-03-25T10:44:11.838Z,1.90
2023-03-25T10:46:58.773Z,3.25
2023-03-25T10:49:29.557Z,2.25
2023-03-25T10:51:59.371Z,2.47
2023-03-25T10:54:31.958Z,2.30
2023-03-25T10:57:11.113Z,3.47
2023-03-25T10:59:45.468Z,4.25
2023-03-25T11:02:27.826Z,2.60
2023-03-25T11:05:01.536Z,3.60
2023-03-25T11:07:36.127Z,3.00
2023-03-25T11:10:22.981Z,4.10
2023-03-25T11:12:52.528Z,3.95
2023-03-25T11:15:23.982Z,2.92
2023-03-25T11:18:08.743Z,2.63
2023-03-25T11:20:39.095Z,4.78
2023-03-25T11:23:24.690Z,3.45
2023-03-25T11:25:54.537Z,3.70
2023-03-25T11:28:44.157Z,3.90
2023-03-25T11:31:17.250Z,3.10
2023-03-25T11:34:03.611Z,3.17
2023-03-25T11:36:33.024Z,3.22
2023-03-25T11:39:04.479Z,3.58
2023-03-25T11:41:34.142Z,2.90
2023-03-25T11:44:02.431Z,3.15
2023-03-25T11:46:29.684Z,2.97
2023-03-25T11:48:56.704Z,3.08
2023-03-25T11:51:28.528Z,2.78
2023-03-25T11:53:59.626Z,2.92
2023-03-25T11:56:41.333Z,2.45
2023-03-25T11:59:17.654Z,1.65
2023-03-25T12:01:49.014Z,2.08
2023-03-25T12:04:22.472Z,1.73
2023-03-25T12:07:01.633Z,2.00
2023-03-25T12:09:31.694Z,2.22
2023-03-25T12:12:19.360Z,1.55
2023-03-25T12:15:15.703Z,1.77
2023-03-25T12:17:49.669Z,1.77
2023-03-25T12:20:52.504Z,1.10
2023-03-25T12:23:54.562Z,1.63
2023-03-25T12:26:26.878Z,1.17
2023-03-25T12:29:30.234Z,1.13
2023-03-25T12:32:18.652Z,1.90
2023-03-25T12:35:04.219Z,1.25
2023-03-25T12:37:36.689Z,1.45
2023-03-25T12:40:25.163Z,1.40
2023-03-25T12:43:11.473Z,1.00
2023-03-25T12:48:34.465Z,1.00
2023-03-25T12:51:13.397Z,1.00
2023-03-25T12:53:46.174Z,1.10
2023-03-25T12:56:30.005Z,5.88
2023-03-25T12:59:19.778Z,1.60
2023-03-25T13:02:11.352Z,1.02
2023-03-25T13:05:07.400Z,1.17
2023-03-25T13:07:44.017Z,1.10
2023-03-25T13:10:21.390Z,1.55
2023-03-25T13:12:57.067Z,1.00
2023-03-25T13:15:31.139Z,1.30
2023-03-25T13:18:11.205Z,1.00
2023-03-25T13:20:43.185Z,2.53
2023-03-25T13:23:17.734Z,1.55
2023-03-25T13:25:53.234Z,1.23
2023-03-25T13:28:26.221Z,1.27
2023-03-25T13:30:54.363Z,2.38
2023-03-25T13:33:36.088Z,1.40
2023-03-25T13:36:28.362Z,1.08
2023-03-25T13:39:05.234Z,1.20
2023-03-25T13:41:41.150Z,1.33
2023-03-25T13:46:49.905Z,2.17
2023-03-25T13:49:35.469Z,1.90
2023-03-25T13:52:02.629Z,1.30
2023-03-25T13:54:43.303Z,1.98
2023-03-25T13:57:34.451Z,1.17
2023-03-25T14:00:27.941Z,2.60
2023-03-25T14:03:18.599Z,2.60
2023-03-25T14:05:57.079Z,1.20
2023-03-25T14:08:57.622Z,1.30
2023-03-25T14:11:45.935Z,1.70
2023-03-25T14:14:19.005Z,1.27
2023-03-25T14:16:50.663Z,1.52
2023-03-25T14:19:26.000Z,2.33
2023-03-25T14:21:53.591Z,1.88
2023-03-25T14:24:28.434Z,2.08
2023-03-25T14:27:07.460Z,2.47
2023-03-25T14:29:41.469Z,2.10
2023-03-25T14:32:17.640Z,1.67
2023-03-25T14:34:52.059Z,1.88
2023-03-25T14:37:29.664Z,2.22
2023-03-25T14:40:07.240Z,2.08
2023-03-25T14:42:58.882Z,1.73
2023-03-25T14:45:35.498Z,2.47
2023-03-25T14:48:19.477Z,1.83
2023-03-25T14:51:17.498Z,1.42
2023-03-25T14:54:00.025Z,1.30
2023-03-25T14:56:36.786Z,1.50
2023-03-25T14:59:29.117Z,1.23
2023-03-25T15:02:03.974Z,2.28
2023-03-25T15:04:38.453Z,1.55
2023-03-25T15:07:16.316Z,2.13
2023-03-25T15:09:52.582Z,1.70
2023-03-25T15:12:24.164Z,2.00
2023-03-25T15:14:56.897Z,1.65
2023-03-25T15:17:53.202Z,2.05
2023-03-25T15:20:22.851Z,2.00
2023-03-25T15:23:27.322Z,2.05
2023-03-25T15:25:56.539Z,3.85
2023-03-25T15:28:42.599Z,2.40
2023-03-25T15:31:26.488Z,3.13
2023-03-25T15:34:22.336Z,2.10
2023-03-25T15:37:07.072Z,2.00
2023-03-25T15:40:08.414Z,1.75
2023-03-25T15:42:43.093Z,1.95
2023-03-25T15:45:28.872Z,2.30
2023-03-25T15:48:24.972Z,2.60
2023-03-25T15:51:06.493Z,2.20
2023-03-25T15:54:01.891Z,1.80
2023-03-25T15:56:37.041Z,1.75
2023-03-25T15:59:43.933Z,1.50
2023-03-25T16:02:26.830Z,2.70
2023-03-25T16:04:54.810Z,1.70
2023-03-25T16:07:26.272Z,1.67
2023-03-25T16:09:55.503Z,1.75
2023-03-25T16:12:25.218Z,1.80
2023-03-25T16:14:52.876Z,1.60
2023-03-25T16:17:22.236Z,2.03
2023-03-25T16:19:58.311Z,2.20
2023-03-25T16:22:32.039Z,2.88
2023-03-25T16:25:02.771Z,2.92
2023-03-25T16:27:33.920Z,2.20
2023-03-25T16:30:00.811Z,2.22
2023-03-25T16:32:35.950Z,1.67
2023-03-25T16:35:04.727Z,1.92
2023-03-25T16:37:34.120Z,1.50
2023-03-25T16:40:06.678Z,1.75
2023-03-25T16:42:34.618Z,1.40
2023-03-25T16:45:05.966Z,1.95
2023-03-25T16:47:33.579Z,1.60
2023-03-25T16:50:02.819Z,2.08
2023-03-25T16:52:33.224Z,1.60
2023-03-25T16:55:04.893Z,1.83
2023-03-25T16:57:39.177Z,1.10
2023-03-25T17:00:18.047Z,1.17
2023-03-25T17:02:48.535Z,1.40
2023-03-25T17:05:21.440Z,1.38
2023-03-25T17:07:58.339Z,1.88
2023-03-25T17:10:28.932Z,2.42
2023-03-25T17:12:57.679Z,1.70
2023-03-25T17:15:26.158Z,2.30
2023-03-25T17:18:00.214Z,3.30
2023-03-25T17:20:45.020Z,2.00
2023-03-25T17:23:18.103Z,1.85
2023-03-25T17:26:01.617Z,1.83
2023-03-25T17:28:45.856Z,1.80
2023-03-25T17:31:30.559Z,2.22
2023-03-25T17:34:04.166Z,2.85
2023-03-25T17:36:32.705Z,3.13
2023-03-25T17:39:03.805Z,2.92
2023-03-25T17:41:37.092Z,2.45
2023-03-25T17:44:04.678Z,3.28
2023-03-25T17:46:32.063Z,3.58
2023-03-25T17:49:00.019Z,3.70
2023-03-25T17:51:29.408Z,3.13
2023-03-25T17:53:56.419Z,4.60
2023-03-25T17:56:28.252Z,3.10
2023-03-25T17:59:00.410Z,2.55
2023-03-25T18:01:28.180Z,3.78
2023-03-25T18:03:55.343Z,3.63
2023-03-25T18:06:22.673Z,2.65
2023-03-25T18:08:50.266Z,2.88
2023-03-25T18:11:17.173Z,2.97
2023-03-25T18:13:47.999Z,3.08
2023-03-25T18:16:20.994Z,3.45
2023-03-25T18:18:48.880Z,3.38
2023-03-25T18:21:17.494Z,2.95
2023-03-25T18:23:47.819Z,3.38
2023-03-25T18:26:17.617Z,3.35
2023-03-25T18:28:45.743Z,3.33
2023-03-25T18:31:17.295Z,2.65
2023-03-25T18:33:46.230Z,3.50
2023-03-25T18:36:13.343Z,3.25
2023-03-25T18:38:40.786Z,3.30
2023-03-25T18:41:08.386Z,3.03
2023-03-25T18:43:35.419Z,4.55
2023-03-25T18:46:02.415Z,3.30
2023-03-25T18:48:29.349Z,3.97
2023-03-25T18:51:00.169Z,4.80
2023-03-25T18:53:29.627Z,3.47
2023-03-25T18:56:00.233Z,3.10
2023-03-25T18:58:33.166Z,3.78
2023-03-25T19:01:01.706Z,3.08
2023-03-25T19:03:38.592Z,4.90
2023-03-25T19:06:08.621Z,4.40
2023-03-25T19:08:36.926Z,4.38
2023-03-25T19:11:16.061Z,3.83
2023-03-25T19:13:47.589Z,3.97
2023-03-25T19:16:14.524Z,3.42
2023-03-25T19:18:41.515Z,3.92
2023-03-25T19:21:08.912Z,3.08
2023-03-25T19:23:36.545Z,3.00
2023-03-25T19:26:04.774Z,3.15
2023-03-25T19:28:31.820Z,2.58
2023-03-25T19:31:02.225Z,2.97
2023-03-25T19:33:31.494Z,2.58
2023-03-25T19:36:01.759Z,2.70
2023-03-25T19:38:30.126Z,3.00
2023-03-25T19:41:12.213Z,3.35
2023-03-25T19:43:39.363Z,3.03
2023-03-25T19:46:07.175Z,2.83
2023-03-25T19:48:34.945Z,2.78
2023-03-25T19:51:02.486Z,3.30
2023-03-25T19:53:29.617Z,2.75
2023-03-25T19:55:57.053Z,3.00
2023-03-25T19:58:24.716Z,3.78
2023-03-25T20:00:53.080Z,3.28
2023-03-25T20:03:22.700Z,2.92
2023-03-25T20:05:56.170Z,2.50
2023-03-25T20:08:23.473Z,2.00
2023-03-25T20:10:50.652Z,2.75
2023-03-25T20:13:17.955Z,1.85
2023-03-25T20:15:44.857Z,1.92
2023-03-25T20:18:11.902Z,2.13
2023-03-25T20:20:40.533Z,1.90
2023-03-25T20:23:07.891Z,2.22
2023-03-25T20:25:35.123Z,2.47
2023-03-25T20:28:02.085Z,2.00
2023-03-25T20:30:29.059Z,2.00
2023-03-25T20:32:55.969Z,1.95
2023-03-25T20:35:22.948Z,2.03
2023-03-25T20:37:52.052Z,2.10
2023-03-25T20:40:23.443Z,1.80
2023-03-25T20:42:54.915Z,1.55
2023-03-25T20:45:21.827Z,1.77
2023-03-25T20:47:48.767Z,1.95
2023-03-25T20:50:16.634Z,2.13
2023-03-25T20:52:44.873Z,1.85
2023-03-25T20:55:12.491Z,1.60
2023-03-25T20:57:39.865Z,1.90
2023-03-25T21:00:07.999Z,1.55
2023-03-25T21:02:35.309Z,1.70
2023-03-25T21:05:03.665Z,1.65
2023-03-25T21:07:32.203Z,2.15
2023-03-25T21:09:59.703Z,1.42
2023-03-25T21:12:40.424Z,1.17
2023-03-25T21:15:10.283Z,1.38
2023-03-25T21:17:37.423Z,1.30
2023-03-25T21:20:08.381Z,1.40
2023-03-25T21:22:42.737Z,1.23
2023-03-25T21:25:10.728Z,1.63
2023-03-25T21:27:38.640Z,1.15
2023-03-25T21:30:09.611Z,1.35
2023-03-25T21:32:39.314Z,1.58
2023-03-25T21:35:07.892Z,1.50
2023-03-25T21:37:38.571Z,1.50
2023-03-25T21:40:08.463Z,1.35
2023-03-25T21:42:38.537Z,1.17
2023-03-25T21:45:07.758Z,1.30
2023-03-25T21:47:36.170Z,1.00
2023-03-25T21:50:06.213Z,1.20
2023-03-25T21:52:33.817Z,1.00
2023-03-25T21:55:00.702Z,1.20
2023-03-25T21:57:27.717Z,1.38
2023-03-25T21:59:55.327Z,1.40
2023-03-25T22:02:22.714Z,1.90
2023-03-25T22:04:49.721Z,1.50
2023-03-25T22:07:16.588Z,1.77
2023-03-25T22:09:43.533Z,1.60
2023-03-25T22:12:10.427Z,1.50
2023-03-25T22:14:37.878Z,1.40
2023-03-25T22:17:04.893Z,1.00
2023-03-25T22:19:31.956Z,1.02
2023-03-25T22:21:58.815Z,1.00
2023-03-25T22:24:25.817Z,1.27
2023-03-25T22:26:52.684Z,0.80
2023-03-25T22:29:19.546Z,1.00
2023-03-25T22:31:46.644Z,1.05
2023-03-25T22:34:15.707Z,1.25
2023-03-25T22:36:49.674Z,1.10
2023-03-25T22:39:20.893Z,0.98
2023-03-25T22:41:48.161Z,1.33
2023-03-25T22:44:17.085Z,0.80
2023-03-25T22:46:45.493Z,1.45
2023-03-25T22:49:12.799Z,1.05
2023-03-25T22:51:39.735Z,0.70
2023-03-25T22:54:07.501Z,0.90
2023-03-25T22:56:34.434Z,1.20
2023-03-25T22:59:05.893Z,1.10
2023-03-25T23:01:34.483Z,1.00
2023-03-25T23:04:01.589Z,1.25
2023-03-25T23:06:29.992Z,0.95
2023-03-25T23:08:58.245Z,1.05
2023-03-25T23:11:28.011Z,0.90
2023-03-25T23:14:01.008Z,1.27
2023-03-25T23:16:30.889Z,1.27
2023-03-25T23:18:58.235Z,0.98
2023-03-25T23:21:28.597Z,0.70
2023-03-25T23:23:58.111Z,1.00
2023-03-25T23:26:34.420Z,0.82
2023-03-25T23:29:03.182Z,1.10
2023-03-25T23:31:34.169Z,1.20
2023-03-25T23:34:04.482Z,0.90
2023-03-25T23:36:34.442Z,1.13
2023-03-25T23:39:02.487Z,0.65
2023-03-25T23:41:29.804Z,1.17
2023-03-25T23:43:56.898Z,1.02
2023-03-25T23:46:25.533Z,1.13
2023-03-25T23:49:02.142Z,1.05
2023-03-25T23:51:36.761Z,0.80
2023-03-25T23:54:05.771Z,1.08
2023-03-25T23:56:33.131Z,0.95
2023-03-25T23:59:00.980Z,1.67
